createdAt,value
2022-10-17T00:00:58.965Z,1.70
2022-10-17T00:03:25.701Z,1.80
2022-10-17T00:05:52.450Z,2.20
2022-10-17T00:08:20.188Z,3.10
2022-10-17T00:11:00.914Z,2.40
2022-10-17T00:13:28.999Z,2.40
2022-10-17T00:15:55.955Z,2.80
2022-10-17T00:18:23.084Z,2.30
2022-10-17T00:20:50.745Z,2.30
2022-10-17T00:23:18.251Z,2.80
2022-10-17T00:25:45.657Z,3.10
2022-10-17T00:28:15.061Z,2.90
2022-10-17T00:30:42.037Z,3.70
2022-10-17T00:33:08.845Z,1.90
2022-10-17T00:35:35.782Z,2.40
2022-10-17T00:38:02.655Z,2.70
2022-10-17T00:40:29.453Z,3.70
2022-10-17T00:42:56.181Z,2.90
2022-10-17T00:45:32.192Z,4.60
2022-10-17T00:48:05.624Z,3.40
2022-10-17T00:50:33.835Z,4.00
2022-10-17T00:53:04.456Z,3.30
2022-10-17T00:55:42.360Z,2.30
2022-10-17T01:00:37.095Z,2.00
2022-10-17T01:03:04.414Z,2.20
2022-10-17T01:05:31.349Z,2.20
2022-10-17T01:07:58.324Z,2.10
2022-10-17T01:10:39.816Z,2.00
2022-10-17T01:13:21.985Z,2.50
2022-10-17T01:16:30.153Z,1.90
2022-10-17T01:19:36.411Z,2.20
2022-10-17T01:22:14.108Z,1.60
2022-10-17T01:25:11.620Z,2.30
2022-10-17T01:31:18.158Z,2.20
2022-10-17T01:33:59.978Z,1.70
2022-10-17T01:37:10.405Z,2.00
2022-10-17T01:39:50.166Z,2.40
2022-10-17T01:42:38.792Z,1.90
2022-10-17T01:47:47.825Z,1.50
2022-10-17T01:50:24.138Z,1.60
2022-10-17T01:53:02.641Z,1.80
2022-10-17T01:55:36.672Z,1.90
2022-10-17T01:58:31.117Z,2.50
2022-10-17T02:01:02.225Z,1.90
2022-10-17T02:03:34.545Z,1.80
2022-10-17T02:06:02.437Z,1.80
2022-10-17T02:11:17.889Z,2.70
2022-10-17T02:14:22.008Z,2.00
2022-10-17T02:17:23.800Z,1.90
2022-10-17T02:20:25.140Z,1.70
2022-10-17T02:22:58.745Z,2.00
2022-10-17T02:25:58.116Z,1.80
2022-10-17T02:28:57.964Z,2.20
2022-10-17T02:31:38.710Z,1.70
2022-10-17T02:34:28.104Z,2.00
2022-10-17T02:37:00.555Z,2.30
2022-10-17T02:39:30.515Z,2.10
2022-10-17T02:42:03.531Z,2.40
2022-10-17T02:44:33.501Z,2.40
2022-10-17T02:47:26.860Z,2.10
2022-10-17T02:49:56.840Z,2.20
2022-10-17T02:52:59.392Z,2.30
2022-10-17T02:55:34.491Z,2.20
2022-10-17T02:58:31.848Z,2.50
2022-10-17T03:00:59.530Z,2.40
2022-10-17T03:06:00.136Z,1.80
2022-10-17T03:08:27.167Z,2.00
2022-10-17T03:10:55.688Z,2.30
2022-10-17T03:13:22.857Z,2.30
2022-10-17T03:15:49.857Z,2.20
2022-10-17T03:18:17.105Z,2.40
2022-10-17T03:20:44.368Z,2.30
2022-10-17T03:23:11.188Z,2.10
2022-10-17T03:25:38.172Z,1.90
2022-10-17T03:28:05.712Z,2.40
2022-10-17T03:30:33.597Z,2.00
2022-10-17T03:33:01.054Z,2.40
2022-10-17T03:35:27.903Z,2.60
2022-10-17T03:37:58.322Z,2.40
2022-10-17T03:40:26.291Z,1.90
2022-10-17T03:42:53.104Z,2.70
2022-10-17T03:45:19.962Z,2.10
2022-10-17T03:47:46.945Z,2.20
2022-10-17T03:50:15.081Z,2.00
2022-10-17T03:52:42.224Z,2.50
2022-10-17T03:55:09.280Z,2.20
2022-10-17T03:57:37.157Z,2.40
2022-10-17T04:00:06.153Z,2.70
2022-10-17T04:02:41.593Z,3.20
2022-10-17T04:05:10.792Z,2.90
2022-10-17T04:07:37.841Z,3.30
2022-10-17T04:10:05.684Z,4.10
2022-10-17T04:12:32.751Z,3.20
2022-10-17T04:14:59.886Z,4.10
2022-10-17T04:17:27.255Z,3.10
2022-10-17T04:19:54.201Z,3.20
2022-10-17T04:22:22.783Z,3.40
2022-10-17T04:24:49.549Z,3.30
2022-10-17T04:27:26.173Z,3.80
2022-10-17T04:29:53.660Z,3.40
2022-10-17T04:32:23.469Z,3.50
2022-10-17T04:34:56.072Z,4.70
2022-10-17T04:37:23.273Z,4.50
2022-10-17T04:39:51.365Z,5.00
2022-10-17T04:42:18.205Z,3.80
2022-10-17T04:44:45.447Z,5.10
2022-10-17T04:47:12.846Z,4.90
2022-10-17T04:52:11.489Z,5.50
2022-10-17T04:54:45.934Z,6.60
2022-10-17T04:57:13.943Z,6.30
2022-10-17T04:59:41.869Z,4.90
2022-10-17T05:02:27.416Z,4.30
2022-10-17T05:04:55.244Z,4.30
2022-10-17T05:07:22.166Z,4.20
2022-10-17T05:10:10.507Z,3.60
2022-10-17T05:12:37.393Z,4.20
2022-10-17T05:15:06.517Z,4.20
2022-10-17T05:17:33.696Z,4.30
2022-10-17T05:20:00.642Z,4.30
2022-10-17T05:22:28.458Z,4.50
2022-10-17T05:24:55.480Z,4.60
2022-10-17T05:27:22.265Z,4.80
2022-10-17T05:29:49.065Z,4.20
2022-10-17T05:32:23.661Z,4.30
2022-10-17T05:34:50.505Z,3.60
2022-10-17T05:37:17.612Z,4.20
2022-10-17T05:39:50.709Z,4.40
2022-10-17T05:42:18.966Z,5.00
2022-10-17T05:44:45.942Z,6.40
2022-10-17T05:47:13.416Z,5.20
2022-10-17T05:49:47.329Z,10.00
2022-10-17T05:52:18.625Z,4.30
2022-10-17T05:55:04.017Z,4.10
2022-10-17T05:57:31.641Z,4.80
2022-10-17T06:02:27.109Z,5.20
2022-10-17T06:04:54.898Z,4.60
2022-10-17T06:07:23.072Z,4.30
2022-10-17T06:09:50.558Z,4.70
2022-10-17T06:12:17.990Z,4.70
2022-10-17T06:14:45.428Z,3.70
2022-10-17T06:17:15.978Z,3.40
2022-10-17T06:19:44.964Z,3.60
2022-10-17T06:22:14.782Z,4.30
2022-10-17T06:24:42.743Z,6.80
2022-10-17T06:29:40.782Z,9.90
2022-10-17T06:32:09.967Z,11.60
2022-10-17T06:34:40.410Z,12.40
2022-10-17T06:37:07.282Z,12.10
2022-10-17T06:39:36.592Z,14.60
2022-10-17T06:42:07.740Z,15.00
2022-10-17T06:44:57.622Z,14.60
2022-10-17T06:47:40.757Z,14.00
2022-10-17T06:50:30.718Z,14.70
2022-10-17T06:53:12.216Z,13.80
2022-10-17T06:56:09.417Z,15.80
2022-10-17T06:58:54.865Z,14.60
2022-10-17T07:01:46.272Z,15.20
2022-10-17T07:04:15.241Z,14.60
2022-10-17T07:06:42.408Z,14.60
2022-10-17T07:09:15.434Z,15.50
2022-10-17T07:11:42.283Z,16.60
2022-10-17T07:14:09.118Z,16.00
2022-10-17T07:16:36.141Z,17.20
2022-10-17T07:19:09.645Z,15.40
2022-10-17T07:21:39.371Z,16.80
2022-10-17T07:24:08.019Z,16.40
2022-10-17T07:26:35.067Z,17.10
2022-10-17T07:29:02.473Z,15.70
2022-10-17T07:31:40.111Z,15.80
2022-10-17T07:34:08.057Z,15.30
2022-10-17T07:36:34.922Z,16.60
2022-10-17T07:39:04.023Z,17.10
2022-10-17T07:41:32.131Z,16.70
2022-10-17T07:43:59.038Z,16.60
2022-10-17T07:46:31.927Z,15.70
2022-10-17T07:48:59.383Z,16.40
2022-10-17T07:51:27.030Z,16.30
2022-10-17T07:53:53.986Z,17.50
2022-10-17T07:56:24.720Z,17.30
2022-10-17T07:58:54.406Z,17.40
2022-10-17T08:01:21.989Z,15.80
2022-10-17T08:03:48.917Z,16.40
2022-10-17T08:06:15.880Z,14.50
2022-10-17T08:08:44.067Z,15.60
2022-10-17T08:11:14.378Z,16.90
2022-10-17T08:13:42.471Z,16.10
2022-10-17T08:16:12.752Z,15.20
2022-10-17T08:18:42.786Z,14.40
2022-10-17T08:21:13.649Z,15.70
2022-10-17T08:23:42.082Z,15.00
2022-10-17T08:26:13.517Z,14.30
2022-10-17T08:28:41.065Z,15.60
2022-10-17T08:31:15.887Z,15.10
2022-10-17T08:33:43.093Z,15.80
2022-10-17T08:36:12.398Z,16.30
2022-10-17T08:38:43.027Z,15.60
2022-10-17T08:41:52.238Z,15.70
2022-10-17T08:44:50.539Z,15.20
2022-10-17T08:47:34.471Z,14.40
2022-10-17T08:50:11.947Z,15.30
2022-10-17T08:52:49.757Z,15.40
2022-10-17T08:55:31.278Z,15.60
2022-10-17T08:57:59.440Z,16.40
2022-10-17T09:00:31.128Z,15.20
2022-10-17T09:03:07.152Z,17.10
2022-10-17T09:05:56.110Z,16.30
2022-10-17T09:08:35.721Z,15.20
2022-10-17T09:11:42.029Z,15.50
2022-10-17T09:14:26.727Z,14.90
2022-10-17T09:17:16.865Z,15.50
2022-10-17T09:19:53.471Z,15.30
2022-10-17T09:22:30.053Z,15.90
2022-10-17T09:25:09.412Z,15.80
2022-10-17T09:27:46.642Z,14.90
2022-10-17T09:30:45.288Z,15.60
2022-10-17T09:33:34.394Z,13.50
2022-10-17T09:36:09.817Z,14.80
2022-10-17T09:38:48.828Z,15.10
2022-10-17T09:44:30.380Z,15.10
2022-10-17T09:47:20.530Z,15.70
2022-10-17T09:49:49.713Z,15.00
2022-10-17T09:52:28.604Z,14.90
2022-10-17T09:55:50.436Z,15.20
2022-10-17T09:58:17.214Z,14.20
2022-10-17T10:00:47.626Z,15.60
2022-10-17T10:03:21.649Z,15.50
2022-10-17T10:06:05.089Z,15.40
2022-10-17T10:08:49.336Z,14.90
2022-10-17T10:11:18.146Z,14.40
2022-10-17T10:13:49.269Z,14.60
2022-10-17T10:16:50.652Z,14.10
2022-10-17T10:19:36.605Z,14.70
2022-10-17T10:22:31.236Z,15.50
2022-10-17T10:25:11.289Z,15.50
2022-10-17T10:27:41.550Z,16.30
2022-10-17T10:30:19.565Z,16.80
2022-10-17T10:32:49.149Z,15.90
2022-10-17T10:35:28.813Z,15.80
2022-10-17T10:37:59.690Z,18.40
2022-10-17T10:40:33.442Z,16.60
2022-10-17T10:43:05.331Z,16.90
2022-10-17T10:45:53.845Z,16.80
2022-10-17T10:48:52.182Z,16.60
2022-10-17T10:51:33.253Z,16.70
2022-10-17T10:54:16.381Z,16.60
2022-10-17T10:57:00.492Z,15.10
2022-10-17T10:59:41.186Z,17.20
2022-10-17T11:02:07.956Z,15.40
2022-10-17T11:04:47.530Z,15.70
2022-10-17T11:07:23.581Z,16.10
2022-10-17T11:10:17.873Z,16.00
2022-10-17T11:13:13.957Z,14.40
2022-10-17T11:15:51.648Z,16.50
2022-10-17T11:21:16.658Z,16.50
2022-10-17T11:24:11.775Z,17.00
2022-10-17T11:27:00.702Z,17.70
2022-10-17T11:29:35.504Z,16.50
2022-10-17T11:32:11.392Z,16.60
2022-10-17T11:34:46.333Z,17.70
2022-10-17T11:37:21.876Z,17.90
2022-10-17T11:40:02.652Z,17.60
2022-10-17T11:42:38.910Z,17.60
2022-10-17T11:45:19.117Z,15.50
2022-10-17T11:47:58.927Z,16.90
2022-10-17T11:53:34.370Z,16.80
2022-10-17T11:56:02.719Z,14.90
2022-10-17T11:58:55.613Z,15.10
2022-10-17T12:01:57.127Z,14.50
2022-10-17T12:04:51.787Z,15.30
2022-10-17T12:07:58.758Z,14.00
2022-10-17T12:11:18.780Z,14.10
2022-10-17T12:13:54.521Z,14.50
2022-10-17T12:16:21.241Z,15.50
2022-10-17T12:19:10.789Z,17.60
2022-10-17T12:22:13.262Z,17.50
2022-10-17T12:24:44.654Z,19.30
2022-10-17T12:27:45.877Z,19.40
2022-10-17T12:30:12.827Z,20.20
2022-10-17T12:33:07.087Z,19.30
2022-10-17T12:35:38.302Z,21.90
2022-10-17T12:38:21.953Z,23.00
2022-10-17T12:40:52.519Z,20.90
2022-10-17T12:43:28.582Z,22.70
2022-10-17T12:45:58.470Z,21.20
2022-10-17T12:48:34.260Z,22.90
2022-10-17T12:51:37.332Z,23.50
2022-10-17T12:54:15.845Z,23.40
2022-10-17T12:56:47.797Z,21.80
2022-10-17T12:59:22.624Z,21.20
2022-10-17T13:01:55.394Z,21.90
2022-10-17T13:04:23.600Z,23.50
2022-10-17T13:06:57.619Z,21.70
2022-10-17T13:09:42.962Z,24.00
2022-10-17T13:12:19.070Z,23.30
2022-10-17T13:14:48.012Z,24.50
2022-10-17T13:17:30.836Z,21.50
2022-10-17T13:19:58.489Z,24.50
2022-10-17T13:22:32.902Z,23.00
2022-10-17T13:25:15.346Z,22.60
2022-10-17T13:27:43.453Z,19.90
2022-10-17T13:30:35.966Z,20.60
2022-10-17T13:33:04.117Z,19.40
2022-10-17T13:38:32.527Z,21.70
2022-10-17T13:41:29.980Z,22.70
2022-10-17T13:43:51.314Z,18.90
2022-10-17T13:46:38.343Z,20.60
2022-10-17T13:49:36.680Z,20.40
2022-10-17T13:52:07.644Z,17.00
2022-10-17T13:54:42.248Z,17.30
2022-10-17T13:57:26.560Z,16.50
2022-10-17T14:00:10.029Z,16.60
2022-10-17T14:02:41.999Z,17.50
2022-10-17T14:08:12.075Z,18.10
2022-10-17T14:10:43.445Z,19.10
2022-10-17T14:13:27.482Z,19.80
2022-10-17T14:15:57.458Z,20.90
2022-10-17T14:18:35.702Z,21.30
2022-10-17T14:24:33.554Z,21.40
2022-10-17T14:27:00.725Z,20.70
2022-10-17T14:29:50.278Z,22.60
2022-10-17T14:32:19.974Z,22.00
2022-10-17T14:34:57.493Z,22.00
2022-10-17T14:37:34.662Z,21.00
2022-10-17T14:40:06.414Z,23.30
2022-10-17T14:42:40.593Z,25.30
2022-10-17T14:45:14.462Z,27.10
2022-10-17T14:47:44.128Z,27.10
2022-10-17T14:50:11.098Z,26.60
2022-10-17T14:52:39.099Z,26.40
2022-10-17T14:55:26.268Z,25.80
2022-10-17T14:57:53.436Z,25.00
2022-10-17T15:00:22.925Z,25.90
2022-10-17T15:02:52.621Z,25.70
2022-10-17T15:05:20.498Z,26.30
2022-10-17T15:07:47.457Z,26.00
2022-10-17T15:10:36.302Z,25.70
2022-10-17T15:13:38.542Z,27.20
2022-10-17T15:15:52.561Z,25.20
2022-10-17T15:18:19.995Z,27.30
2022-10-17T15:20:46.847Z,25.40
2022-10-17T15:23:13.680Z,27.60
2022-10-17T15:25:40.722Z,24.40
2022-10-17T15:28:08.117Z,25.50
2022-10-17T15:30:36.987Z,25.80
2022-10-17T15:33:04.153Z,26.30
2022-10-17T15:35:31.362Z,26.10
2022-10-17T15:37:58.429Z,24.50
2022-10-17T15:40:30.376Z,26.20
2022-10-17T15:42:57.726Z,25.90
2022-10-17T15:45:25.117Z,24.20
2022-10-17T15:47:56.942Z,24.40
2022-10-17T15:50:23.782Z,24.50
2022-10-17T15:52:51.245Z,24.30
2022-10-17T15:55:19.433Z,24.40
2022-10-17T15:57:48.985Z,23.40
2022-10-17T16:00:21.336Z,24.80
2022-10-17T16:02:49.932Z,23.30
2022-10-17T16:05:26.605Z,24.40
2022-10-17T16:07:54.724Z,24.10
2022-10-17T16:10:23.349Z,22.80
2022-10-17T16:12:50.779Z,22.20
2022-10-17T16:15:24.990Z,20.50
2022-10-17T16:17:56.413Z,22.20
2022-10-17T16:20:25.518Z,19.60
2022-10-17T16:22:59.983Z,23.80
2022-10-17T16:25:30.528Z,22.10
2022-10-17T16:28:00.477Z,20.40
2022-10-17T16:30:31.976Z,21.50
2022-10-17T16:32:59.908Z,19.30
2022-10-17T16:35:33.408Z,19.40
2022-10-17T16:38:06.489Z,16.60
2022-10-17T16:40:34.154Z,18.30
2022-10-17T16:43:00.949Z,18.70
2022-10-17T16:45:27.874Z,19.00
2022-10-17T16:47:55.300Z,19.20
2022-10-17T16:50:22.310Z,21.20
2022-10-17T16:52:49.182Z,21.10
2022-10-17T16:55:18.889Z,21.00
2022-10-17T16:57:46.144Z,20.00
2022-10-17T17:00:15.875Z,24.90
2022-10-17T17:02:43.313Z,24.30
2022-10-17T17:05:10.859Z,24.20
2022-10-17T17:07:37.694Z,26.70
2022-10-17T17:10:05.372Z,24.40
2022-10-17T17:12:35.507Z,26.50
2022-10-17T17:15:03.869Z,37.40
2022-10-17T17:17:48.751Z,36.80
2022-10-17T17:20:17.813Z,29.00
2022-10-17T17:22:44.613Z,27.80
2022-10-17T17:25:11.441Z,27.30
2022-10-17T17:27:38.248Z,29.60
2022-10-17T17:30:05.813Z,48.20
2022-10-17T17:32:33.113Z,58.60
2022-10-17T17:35:00.323Z,66.50
2022-10-17T17:37:27.410Z,66.60
2022-10-17T17:39:54.410Z,58.60
2022-10-17T17:42:21.249Z,48.50
2022-10-17T17:44:49.938Z,38.90
2022-10-17T17:47:16.788Z,30.60
2022-10-17T17:49:43.624Z,32.00
2022-10-17T17:52:10.570Z,32.00
2022-10-17T17:54:40.757Z,29.30
2022-10-17T17:57:08.073Z,33.20
2022-10-17T17:59:35.521Z,30.70
2022-10-17T18:02:03.047Z,27.90
2022-10-17T18:04:30.446Z,25.60
2022-10-17T18:06:57.441Z,25.60
2022-10-17T18:09:24.611Z,26.30
2022-10-17T18:11:52.075Z,25.90
2022-10-17T18:14:23.793Z,25.30
2022-10-17T18:16:51.724Z,27.40
2022-10-17T18:19:18.994Z,26.30
2022-10-17T18:21:48.803Z,25.10
2022-10-17T18:24:16.813Z,26.30
2022-10-17T18:26:44.347Z,25.70
2022-10-17T18:29:13.115Z,25.90
2022-10-17T18:31:40.031Z,22.90
2022-10-17T18:34:07.061Z,24.60
2022-10-17T18:36:35.632Z,28.00
2022-10-17T18:39:03.955Z,29.70
2022-10-17T18:41:32.019Z,29.10
2022-10-17T18:43:59.135Z,29.40
2022-10-17T18:46:41.055Z,27.20
2022-10-17T18:49:11.177Z,30.10
2022-10-17T18:51:38.593Z,26.00
2022-10-17T18:54:07.690Z,25.10
2022-10-17T18:56:35.267Z,24.00
2022-10-17T18:59:02.161Z,21.50
2022-10-17T19:01:29.257Z,25.10
2022-10-17T19:03:59.256Z,33.00
2022-10-17T19:06:32.001Z,38.70
2022-10-17T19:09:01.846Z,38.30
2022-10-17T19:11:31.576Z,33.90
2022-10-17T19:14:03.495Z,30.90
2022-10-17T19:16:35.718Z,30.50
2022-10-17T19:19:15.526Z,29.80
2022-10-17T19:21:43.380Z,27.70
2022-10-17T19:24:18.949Z,25.90
2022-10-17T19:26:50.358Z,26.60
2022-10-17T19:29:18.384Z,26.10
2022-10-17T19:31:46.734Z,28.10
2022-10-17T19:34:15.057Z,26.30
2022-10-17T19:36:42.499Z,29.50
2022-10-17T19:39:23.348Z,25.50
2022-10-17T19:41:50.206Z,24.80
2022-10-17T19:44:17.765Z,27.00
2022-10-17T19:46:46.906Z,25.10
2022-10-17T19:49:14.716Z,28.60
2022-10-17T19:51:41.778Z,25.30
2022-10-17T19:54:09.398Z,27.50
2022-10-17T19:56:38.292Z,27.70
2022-10-17T19:59:06.715Z,30.70
2022-10-17T20:01:39.055Z,29.70
2022-10-17T20:04:08.557Z,28.50
2022-10-17T20:06:35.777Z,27.00
2022-10-17T20:09:05.079Z,26.00
2022-10-17T20:11:32.430Z,25.30
2022-10-17T20:14:01.976Z,25.10
2022-10-17T20:16:32.598Z,26.10
2022-10-17T20:19:07.578Z,25.60
2022-10-17T20:21:36.777Z,30.80
2022-10-17T20:24:07.048Z,25.00
2022-10-17T20:26:39.629Z,25.90
2022-10-17T20:29:16.456Z,25.10
2022-10-17T20:31:45.911Z,24.60
2022-10-17T20:34:16.069Z,24.30
2022-10-17T20:36:43.613Z,23.70
2022-10-17T20:39:14.055Z,23.10
2022-10-17T20:41:41.800Z,24.60
2022-10-17T20:44:09.873Z,24.50
2022-10-17T20:46:38.477Z,22.10
2022-10-17T20:49:13.173Z,25.10
2022-10-17T20:51:40.122Z,25.80
2022-10-17T20:54:07.157Z,26.00
2022-10-17T20:56:35.620Z,24.40
2022-10-17T20:59:15.021Z,22.60
2022-10-17T21:01:42.404Z,24.30
2022-10-17T21:04:44.093Z,25.20
2022-10-17T21:06:56.978Z,22.10
2022-10-17T21:09:24.470Z,22.50
2022-10-17T21:11:55.147Z,23.50
2022-10-17T21:14:23.951Z,20.40
2022-10-17T21:16:52.386Z,18.20
2022-10-17T21:19:21.657Z,19.60
2022-10-17T21:21:48.537Z,18.80
2022-10-17T21:24:18.156Z,19.70
2022-10-17T21:26:47.826Z,20.40
2022-10-17T21:29:15.087Z,22.80
2022-10-17T21:31:44.681Z,21.60
2022-10-17T21:34:26.336Z,20.40
2022-10-17T21:36:53.316Z,19.40
2022-10-17T21:39:21.962Z,21.00
2022-10-17T21:41:48.829Z,19.70
2022-10-17T21:44:20.341Z,20.00
2022-10-17T21:46:48.034Z,23.30
2022-10-17T21:49:18.604Z,24.30
2022-10-17T21:51:47.687Z,24.70
2022-10-17T21:54:16.527Z,22.70
2022-10-17T21:56:43.746Z,21.90
2022-10-17T21:59:11.599Z,21.50
2022-10-17T22:04:13.951Z,16.60
2022-10-17T22:06:43.310Z,16.40
2022-10-17T22:09:16.277Z,17.00
2022-10-17T22:11:48.338Z,17.10
2022-10-17T22:14:18.955Z,16.50
2022-10-17T22:16:47.602Z,17.40
2022-10-17T22:19:22.059Z,19.50
2022-10-17T22:21:49.723Z,17.60
2022-10-17T22:26:51.817Z,17.90
2022-10-17T22:29:19.070Z,19.00
2022-10-17T22:31:45.996Z,15.40
2022-10-17T22:34:15.832Z,18.80
2022-10-17T22:36:43.487Z,18.20
2022-10-17T22:39:11.452Z,16.30
2022-10-17T22:44:06.775Z,16.30
2022-10-17T22:46:33.912Z,15.00
2022-10-17T22:49:00.899Z,13.00
2022-10-17T22:51:28.158Z,15.30
2022-10-17T22:53:55.058Z,14.10
2022-10-17T22:56:23.938Z,12.20
2022-10-17T22:58:51.786Z,12.60
2022-10-17T23:01:23.317Z,13.10
2022-10-17T23:03:52.030Z,12.40
2022-10-17T23:06:20.105Z,13.70
2022-10-17T23:08:47.182Z,14.30
2022-10-17T23:11:14.524Z,15.80
2022-10-17T23:13:41.465Z,15.70
2022-10-17T23:16:09.419Z,15.70
2022-10-17T23:21:04.552Z,12.80
2022-10-17T23:23:31.410Z,13.40
2022-10-17T23:26:14.125Z,13.90
2022-10-17T23:28:43.249Z,12.80
2022-10-17T23:31:17.399Z,14.70
2022-10-17T23:33:46.713Z,13.60
2022-10-17T23:36:16.555Z,17.20
2022-10-17T23:38:45.626Z,23.80
2022-10-17T23:41:13.989Z,22.10
2022-10-17T23:43:41.375Z,20.80
2022-10-17T23:46:09.650Z,21.40
2022-10-17T23:48:37.390Z,21.90
2022-10-17T23:51:06.079Z,21.00
2022-10-17T23:53:32.941Z,17.30
2022-10-17T23:55:59.886Z,17.40
2022-10-17T23:58:26.722Z,15.10
